Time;durP1;ratioP1;P1;durP2;ratioP2;P2;SDS_P1;SDS_P2;PMS_P1;PMS_P2;Temp;Humidity;BMP_temperature;BMP_pressure;BME280_temperature;BME280_humidity;BME280_pressure;Samples;Min_cycle;Max_cycle;Signal;HPM_P1;HPM_P2
2021/11/05 00:01:50;;;;;;;9.73;2.20;;;;;;;;;;4917350;29;20030;-74
2021/11/05 00:04:16;;;;;;;8.95;2.60;;;;;;;;;;4924353;29;20042;-74
2021/11/05 00:06:42;;;;;;;6.07;2.00;;;;;;;;;;4930071;29;20024;-73
2021/11/05 00:09:08;;;;;;;11.02;2.53;;;;;;;;;;4927203;29;20039;-73
2021/11/05 00:11:35;;;;;;;8.57;2.20;;;;;;;;;;4921283;29;20030;-73
2021/11/05 00:14:01;;;;;;;3.90;2.10;;;;;;;;;;4923035;29;20027;-73
2021/11/05 00:16:27;;;;;;;9.52;2.47;;;;;;;;;;4919577;29;20020;-73
2021/11/05 00:18:53;;;;;;;9.65;2.30;;;;;;;;;;4923014;29;20028;-74
2021/11/05 00:21:19;;;;;;;12.98;2.55;;;;;;;;;;4923817;29;20031;-74
2021/11/05 00:23:45;;;;;;;7.00;2.03;;;;;;;;;;4921994;29;20422;-73
2021/11/05 00:26:12;;;;;;;8.60;2.63;;;;;;;;;;4920646;29;20028;-74
2021/11/05 00:28:38;;;;;;;10.13;1.98;;;;;;;;;;4921206;29;20039;-73
2021/11/05 00:31:04;;;;;;;5.32;1.63;;;;;;;;;;4922314;29;20098;-74
2021/11/05 00:33:31;;;;;;;10.20;2.40;;;;;;;;;;4920318;29;20028;-73
2021/11/05 00:35:57;;;;;;;8.63;1.92;;;;;;;;;;4923839;29;20028;-73
2021/11/05 00:38:23;;;;;;;7.80;1.88;;;;;;;;;;4921936;29;20027;-74
2021/11/05 00:40:49;;;;;;;11.70;2.30;;;;;;;;;;4919294;29;20031;-74
2021/11/05 00:43:15;;;;;;;12.10;2.05;;;;;;;;;;4920727;29;20599;-74
2021/11/05 00:45:41;;;;;;;6.75;1.90;;;;;;;;;;4919437;29;20100;-73
2021/11/05 00:48:08;;;;;;;7.15;2.13;;;;;;;;;;4923087;29;20028;-73
2021/11/05 00:50:34;;;;;;;8.95;1.77;;;;;;;;;;4920072;29;20091;-73
2021/11/05 00:53:00;;;;;;;11.50;2.63;;;;;;;;;;4924873;29;20028;-74
2021/11/05 00:55:26;;;;;;;14.45;2.15;;;;;;;;;;4922551;29;20510;-73
2021/11/05 00:57:53;;;;;;;13.07;2.03;;;;;;;;;;4922055;29;20050;-73
2021/11/05 01:00:19;;;;;;;7.57;3.20;;;;;;;;;;4919337;29;20124;-73
2021/11/05 01:02:45;;;;;;;8.93;2.85;;;;;;;;;;4919265;29;20040;-73
2021/11/05 01:05:12;;;;;;;7.65;2.83;;;;;;;;;;4927157;29;20028;-73
2021/11/05 01:07:39;;;;;;;12.15;2.97;;;;;;;;;;4920573;29;20105;-74
2021/11/05 01:10:06;;;;;;;7.43;3.80;;;;;;;;;;4921122;29;20032;-73
2021/11/05 01:12:32;;;;;;;7.68;3.38;;;;;;;;;;4922548;29;20036;-74
2021/11/05 01:14:58;;;;;;;12.30;3.40;;;;;;;;;;4920264;29;20024;-73
2021/11/05 01:17:25;;;;;;;11.00;3.13;;;;;;;;;;4921254;29;20031;-74
2021/11/05 01:19:51;;;;;;;7.32;3.28;;;;;;;;;;4919369;29;20028;-74
2021/11/05 01:22:17;;;;;;;7.15;3.58;;;;;;;;;;4921561;29;20019;-74
2021/11/05 01:24:43;;;;;;;11.57;3.88;;;;;;;;;;4920615;29;20103;-74
2021/11/05 01:27:09;;;;;;;18.65;3.83;;;;;;;;;;4921499;29;20032;-73
2021/11/05 01:29:36;;;;;;;11.02;3.78;;;;;;;;;;4916551;29;20543;-74
2021/11/05 01:32:02;;;;;;;10.43;3.72;;;;;;;;;;4919122;29;20036;-74
2021/11/05 01:34:29;;;;;;;6.53;4.00;;;;;;;;;;4919711;29;20492;-74
2021/11/05 01:36:55;;;;;;;11.63;4.25;;;;;;;;;;4915767;29;20469;-73
2021/11/05 01:39:21;;;;;;;10.25;4.75;;;;;;;;;;4920160;29;20035;-73
2021/11/05 01:41:47;;;;;;;13.45;5.80;;;;;;;;;;4921352;29;20036;-74
2021/11/05 01:44:14;;;;;;;7.85;4.13;;;;;;;;;;4924549;29;20098;-73
2021/11/05 01:46:43;;;;;;;9.88;3.90;;;;;;;;;;4919110;29;20026;-74
2021/11/05 01:49:10;;;;;;;7.82;2.78;;;;;;;;;;4918991;29;20024;-74
2021/11/05 01:51:37;;;;;;;11.27;3.08;;;;;;;;;;4919619;29;20051;-74
2021/11/05 01:54:13;;;;;;;11.38;3.42;;;;;;;;;;4920720;29;20032;-74
2021/11/05 01:56:40;;;;;;;7.00;2.30;;;;;;;;;;4918832;29;20034;-73
2021/11/05 01:59:06;;;;;;;8.20;2.33;;;;;;;;;;4919230;29;20027;-73
2021/11/05 02:01:34;;;;;;;10.00;2.42;;;;;;;;;;4916709;29;20035;-73
2021/11/05 02:04:01;;;;;;;6.70;2.08;;;;;;;;;;4923267;29;20066;-73
2021/11/05 02:06:28;;;;;;;9.40;2.17;;;;;;;;;;4925881;29;20020;-73
2021/11/05 02:08:54;;;;;;;3.40;1.75;;;;;;;;;;4928377;29;20042;-74
2021/11/05 02:11:21;;;;;;;10.68;3.03;;;;;;;;;;4926481;29;20063;-73
2021/11/05 02:13:47;;;;;;;13.02;2.70;;;;;;;;;;4925050;29;20035;-74
2021/11/05 02:16:14;;;;;;;10.25;2.47;;;;;;;;;;4926658;29;20026;-74
2021/11/05 02:18:41;;;;;;;14.55;2.33;;;;;;;;;;4926561;29;20032;-73
2021/11/05 02:21:11;;;;;;;8.38;2.47;;;;;;;;;;4927507;29;20040;-74
2021/11/05 02:23:37;;;;;;;9.77;2.63;;;;;;;;;;4928063;29;20042;-74
2021/11/05 02:26:03;;;;;;;11.50;2.55;;;;;;;;;;4925603;29;20099;-74
2021/11/05 02:28:35;;;;;;;12.35;2.97;;;;;;;;;;4929075;29;20040;-73
2021/11/05 02:31:01;;;;;;;7.95;2.50;;;;;;;;;;4924607;29;20052;-74
2021/11/05 02:33:27;;;;;;;8.73;2.60;;;;;;;;;;4927811;29;20035;-74
2021/11/05 02:35:53;;;;;;;7.68;2.85;;;;;;;;;;4923045;29;20024;-73
2021/11/05 02:38:19;;;;;;;9.35;3.10;;;;;;;;;;4927856;29;20031;-73
2021/11/05 02:40:46;;;;;;;9.60;2.58;;;;;;;;;;4925649;29;20055;-74
2021/11/05 02:43:12;;;;;;;14.30;3.28;;;;;;;;;;4924812;29;20050;-73
2021/11/05 02:45:47;;;;;;;10.10;2.90;;;;;;;;;;4924084;29;20034;-74
2021/11/05 02:48:13;;;;;;;9.05;2.25;;;;;;;;;;4924641;29;20579;-74
2021/11/05 02:50:39;;;;;;;13.10;3.03;;;;;;;;;;4926954;29;20614;-74
2021/11/05 02:53:05;;;;;;;7.78;3.53;;;;;;;;;;4924318;29;20024;-74
2021/11/05 02:55:31;;;;;;;15.20;3.55;;;;;;;;;;4927760;29;20020;-73
2021/11/05 02:57:57;;;;;;;10.63;3.45;;;;;;;;;;4942715;29;20024;-73
2021/11/05 03:00:24;;;;;;;12.10;3.35;;;;;;;;;;4924018;29;20028;-74
2021/11/05 03:02:50;;;;;;;6.85;3.13;;;;;;;;;;4927703;29;20032;-74
2021/11/05 03:05:16;;;;;;;7.65;3.28;;;;;;;;;;4924997;29;20028;-73
2021/11/05 03:07:42;;;;;;;9.00;3.38;;;;;;;;;;4926668;29;20575;-74
2021/11/05 03:10:09;;;;;;;12.13;3.25;;;;;;;;;;4924983;29;20020;-74
2021/11/05 03:12:36;;;;;;;13.73;3.88;;;;;;;;;;4927696;29;20228;-73
2021/11/05 03:15:02;;;;;;;10.18;3.70;;;;;;;;;;4924325;29;20032;-73
2021/11/05 03:17:28;;;;;;;14.75;3.88;;;;;;;;;;4921207;29;20107;-73
2021/11/05 03:19:54;;;;;;;13.15;3.70;;;;;;;;;;4922382;29;20127;-74
2021/11/05 03:22:21;;;;;;;14.57;4.05;;;;;;;;;;4924986;29;20083;-74
2021/11/05 03:24:47;;;;;;;12.18;3.70;;;;;;;;;;4923296;29;20028;-74
2021/11/05 03:27:13;;;;;;;12.85;4.03;;;;;;;;;;4923318;29;20103;-73
2021/11/05 03:29:39;;;;;;;15.80;4.53;;;;;;;;;;4920982;29;20048;-73
2021/11/05 03:32:06;;;;;;;14.52;4.18;;;;;;;;;;4924919;29;20062;-73
2021/11/05 03:34:32;;;;;;;12.77;4.38;;;;;;;;;;4928975;29;20028;-74
2021/11/05 03:36:58;;;;;;;11.23;3.92;;;;;;;;;;4921673;29;20032;-74
2021/11/05 03:39:24;;;;;;;10.48;4.20;;;;;;;;;;4923529;29;20111;-73
2021/11/05 03:41:50;;;;;;;10.25;4.05;;;;;;;;;;4920691;29;20484;-74
2021/11/05 03:44:17;;;;;;;16.63;4.25;;;;;;;;;;4923071;29;20043;-74
2021/11/05 03:46:43;;;;;;;12.90;4.13;;;;;;;;;;4920791;29;20038;-74
2021/11/05 03:49:09;;;;;;;18.58;5.10;;;;;;;;;;4916346;29;20115;-75
2021/11/05 03:51:36;;;;;;;10.55;3.92;;;;;;;;;;4918898;29;20079;-74
2021/11/05 03:54:02;;;;;;;7.65;3.08;;;;;;;;;;4918602;29;20036;-74
2021/11/05 03:56:29;;;;;;;11.90;3.10;;;;;;;;;;4918003;29;20028;-74
2021/11/05 03:58:55;;;;;;;6.85;2.72;;;;;;;;;;4918883;29;20027;-74
2021/11/05 04:01:21;;;;;;;6.93;2.63;;;;;;;;;;4916090;29;20038;-74
2021/11/05 04:03:51;;;;;;;11.50;2.63;;;;;;;;;;4908270;29;20036;-74
2021/11/05 04:06:17;;;;;;;12.80;3.20;;;;;;;;;;4916434;29;20031;-74
2021/11/05 04:08:43;;;;;;;8.18;2.58;;;;;;;;;;4914065;29;20028;-74
2021/11/05 04:11:10;;;;;;;8.57;2.80;;;;;;;;;;4912823;29;20293;-74
2021/11/05 04:13:36;;;;;;;10.60;3.20;;;;;;;;;;4915840;29;20046;-75
2021/11/05 04:16:02;;;;;;;8.50;3.00;;;;;;;;;;4913786;29;20036;-75
2021/11/05 04:18:28;;;;;;;9.70;3.30;;;;;;;;;;4916672;29;20031;-74
2021/11/05 04:20:54;;;;;;;8.43;3.22;;;;;;;;;;4915822;29;20470;-75
2021/11/05 04:23:20;;;;;;;11.05;3.25;;;;;;;;;;4914754;29;20040;-74
2021/11/05 04:25:47;;;;;;;8.55;2.90;;;;;;;;;;4913030;29;20040;-74
2021/11/05 04:28:14;;;;;;;11.73;2.90;;;;;;;;;;4910480;29;20032;-74
2021/11/05 04:30:40;;;;;;;7.35;3.15;;;;;;;;;;4912400;29;20056;-74
2021/11/05 04:33:07;;;;;;;9.23;3.00;;;;;;;;;;4914096;29;20030;-74
2021/11/05 04:35:33;;;;;;;16.15;3.10;;;;;;;;;;4912509;29;20552;-74
2021/11/05 04:38:00;;;;;;;9.75;2.60;;;;;;;;;;4913276;29;20620;-74
2021/11/05 04:40:26;;;;;;;7.13;2.25;;;;;;;;;;4914200;29;20059;-74
2021/11/05 04:42:52;;;;;;;16.08;2.78;;;;;;;;;;4914385;29;20039;-75
2021/11/05 04:45:18;;;;;;;7.80;2.45;;;;;;;;;;4915595;29;20090;-74
2021/11/05 04:47:44;;;;;;;5.55;2.38;;;;;;;;;;4913773;29;20078;-74
2021/11/05 04:50:11;;;;;;;9.90;2.58;;;;;;;;;;4911591;29;20095;-74
2021/11/05 04:52:38;;;;;;;7.60;3.13;;;;;;;;;;4918379;29;20036;-74
2021/11/05 04:55:05;;;;;;;10.45;3.40;;;;;;;;;;4912889;29;20500;-74
2021/11/05 04:57:31;;;;;;;9.68;2.92;;;;;;;;;;4912861;29;20040;-74
2021/11/05 04:59:58;;;;;;;11.43;3.28;;;;;;;;;;4912256;29;20031;-74
2021/11/05 05:02:24;;;;;;;10.07;3.17;;;;;;;;;;4915642;29;20055;-75
2021/11/05 05:04:50;;;;;;;13.98;3.05;;;;;;;;;;4911945;29;20098;-74
2021/11/05 05:07:16;;;;;;;11.43;2.88;;;;;;;;;;4913040;29;20530;-74
2021/11/05 05:09:43;;;;;;;14.45;5.40;;;;;;;;;;4913017;29;20034;-74
2021/11/05 05:12:09;;;;;;;9.35;2.67;;;;;;;;;;4907898;29;20032;-75
2021/11/05 05:14:35;;;;;;;7.68;2.47;;;;;;;;;;4911463;29;20443;-74
2021/11/05 05:17:01;;;;;;;11.43;3.33;;;;;;;;;;4914998;29;20661;-74
2021/11/05 05:19:27;;;;;;;6.80;2.83;;;;;;;;;;4910318;29;20039;-74
2021/11/05 05:21:54;;;;;;;14.02;3.40;;;;;;;;;;4913951;29;20533;-74
2021/11/05 05:24:20;;;;;;;9.55;3.55;;;;;;;;;;4911138;29;20556;-74
2021/11/05 05:26:46;;;;;;;10.68;3.45;;;;;;;;;;4912110;29;20169;-74
2021/11/05 05:29:13;;;;;;;12.05;2.90;;;;;;;;;;4915053;29;20040;-74
2021/11/05 05:31:39;;;;;;;9.77;4.80;;;;;;;;;;4911757;29;20436;-75
2021/11/05 05:34:05;;;;;;;12.02;3.67;;;;;;;;;;4909523;29;20036;-74
2021/11/05 05:36:32;;;;;;;11.15;3.90;;;;;;;;;;4912160;29;20465;-74
2021/11/05 05:38:58;;;;;;;7.05;3.47;;;;;;;;;;4910387;29;20416;-74
2021/11/05 05:41:24;;;;;;;11.13;3.90;;;;;;;;;;4912640;29;20028;-75
2021/11/05 05:43:50;;;;;;;12.07;3.83;;;;;;;;;;4911110;29;20047;-74
2021/11/05 05:46:16;;;;;;;6.03;3.30;;;;;;;;;;4913865;29;20118;-74
2021/11/05 05:48:42;;;;;;;12.30;3.85;;;;;;;;;;4917864;29;20028;-74
2021/11/05 05:51:09;;;;;;;10.68;3.58;;;;;;;;;;4917787;29;20027;-74
2021/11/05 05:53:35;;;;;;;13.73;6.00;;;;;;;;;;4917890;29;20028;-74
2021/11/05 05:56:01;;;;;;;11.40;4.90;;;;;;;;;;4916322;29;20072;-74
2021/11/05 05:58:27;;;;;;;9.68;4.38;;;;;;;;;;4914239;29;20043;-75
2021/11/05 06:00:54;;;;;;;6.72;3.80;;;;;;;;;;4915852;29;20090;-74
2021/11/05 06:03:20;;;;;;;11.93;4.13;;;;;;;;;;4911548;29;20058;-73
2021/11/05 06:05:46;;;;;;;11.95;4.68;;;;;;;;;;4911469;29;20207;-74
2021/11/05 06:08:12;;;;;;;14.45;5.93;;;;;;;;;;4913453;29;20335;-74
2021/11/05 06:10:38;;;;;;;18.13;5.78;;;;;;;;;;4909685;29;20342;-74
2021/11/05 06:13:05;;;;;;;12.02;5.07;;;;;;;;;;4910859;29;20479;-74
2021/11/05 06:15:31;;;;;;;16.45;5.97;;;;;;;;;;4912619;29;20059;-74
2021/11/05 06:17:57;;;;;;;14.73;5.93;;;;;;;;;;4914307;29;20137;-74
2021/11/05 06:20:23;;;;;;;16.65;5.80;;;;;;;;;;4912431;29;20690;-73
2021/11/05 06:22:49;;;;;;;16.27;5.50;;;;;;;;;;4911465;29;20487;-74
2021/11/05 06:25:15;;;;;;;9.38;5.40;;;;;;;;;;4914203;29;20036;-74
2021/11/05 06:27:42;;;;;;;12.15;5.50;;;;;;;;;;4910982;29;20024;-74
2021/11/05 06:30:08;;;;;;;13.57;5.40;;;;;;;;;;4913668;29;20061;-74
2021/11/05 06:32:35;;;;;;;16.25;6.00;;;;;;;;;;4915271;29;20055;-74
2021/11/05 06:35:01;;;;;;;11.80;4.65;;;;;;;;;;4916713;29;20033;-74
2021/11/05 06:37:27;;;;;;;10.75;5.28;;;;;;;;;;4915662;29;20103;-74
2021/11/05 06:39:54;;;;;;;13.10;4.47;;;;;;;;;;4914285;29;20502;-74
2021/11/05 06:42:21;;;;;;;11.98;5.57;;;;;;;;;;4912287;29;20386;-74
2021/11/05 06:44:50;;;;;;;11.27;5.57;;;;;;;;;;4918464;29;20106;-74
2021/11/05 06:47:17;;;;;;;14.40;5.68;;;;;;;;;;4913663;29;20028;-74
2021/11/05 06:49:43;;;;;;;12.60;5.78;;;;;;;;;;4914025;29;20028;-74
2021/11/05 06:52:09;;;;;;;14.55;6.70;;;;;;;;;;4917930;29;20028;-74
2021/11/05 06:54:38;;;;;;;15.43;7.70;;;;;;;;;;4917708;29;21045;-74
2021/11/05 06:57:04;;;;;;;15.45;7.47;;;;;;;;;;4916253;29;20036;-74
2021/11/05 06:59:30;;;;;;;13.25;6.95;;;;;;;;;;4914962;29;20496;-73
2021/11/05 07:01:57;;;;;;;16.13;6.97;;;;;;;;;;4915629;29;20036;-74
2021/11/05 07:04:23;;;;;;;13.02;6.97;;;;;;;;;;4914710;29;20127;-74
2021/11/05 07:06:51;;;;;;;18.42;7.22;;;;;;;;;;4917624;29;20457;-74
2021/11/05 07:09:17;;;;;;;15.77;6.78;;;;;;;;;;4914545;29;20472;-74
2021/11/05 07:11:45;;;;;;;16.27;8.02;;;;;;;;;;4914354;29;20023;-74
2021/11/05 07:14:11;;;;;;;13.90;7.47;;;;;;;;;;4916850;29;20334;-74
2021/11/05 07:16:37;;;;;;;15.25;8.15;;;;;;;;;;4914261;29;20066;-74
2021/11/05 07:19:05;;;;;;;14.38;8.00;;;;;;;;;;4918141;29;20046;-74
2021/11/05 07:21:31;;;;;;;19.50;8.13;;;;;;;;;;4916351;29;20111;-74
2021/11/05 07:24:02;;;;;;;19.00;9.13;;;;;;;;;;4915841;29;20043;-74
2021/11/05 07:26:38;;;;;;;20.35;8.65;;;;;;;;;;4916520;29;20279;-74
2021/11/05 07:29:06;;;;;;;15.95;7.80;;;;;;;;;;4911343;29;20467;-73
2021/11/05 07:31:32;;;;;;;22.00;8.20;;;;;;;;;;4914285;29;20163;-74
2021/11/05 07:33:59;;;;;;;18.25;8.55;;;;;;;;;;4915405;29;20444;-74
2021/11/05 07:36:25;;;;;;;15.50;8.65;;;;;;;;;;4913215;29;20451;-74
2021/11/05 07:38:52;;;;;;;16.50;8.57;;;;;;;;;;4918705;29;20055;-74
2021/11/05 07:41:19;;;;;;;17.10;8.43;;;;;;;;;;4916854;29;20059;-74
2021/11/05 07:43:45;;;;;;;16.98;9.00;;;;;;;;;;4915479;29;20122;-73
2021/11/05 07:46:12;;;;;;;24.65;8.95;;;;;;;;;;4916457;29;20020;-74
2021/11/05 07:48:38;;;;;;;19.58;8.32;;;;;;;;;;4919188;29;20032;-74
2021/11/05 07:51:04;;;;;;;18.35;9.25;;;;;;;;;;4912398;29;20032;-74
2021/11/05 07:53:30;;;;;;;20.50;8.85;;;;;;;;;;4910539;29;20028;-73
2021/11/05 07:55:56;;;;;;;17.13;9.13;;;;;;;;;;4912893;29;20028;-73
2021/11/05 07:58:22;;;;;;;16.70;9.43;;;;;;;;;;4910879;29;20032;-73
2021/11/05 08:00:49;;;;;;;14.77;8.00;;;;;;;;;;4909491;29;20447;-74
2021/11/05 08:03:16;;;;;;;23.48;8.88;;;;;;;;;;4913425;29;20392;-74
2021/11/05 08:05:43;;;;;;;20.77;9.57;;;;;;;;;;4916470;29;20024;-73
2021/11/05 08:08:10;;;;;;;17.23;8.27;;;;;;;;;;4918394;29;20079;-73
2021/11/05 08:10:36;;;;;;;16.95;6.63;;;;;;;;;;4915282;29;20063;-73
2021/11/05 08:13:02;;;;;;;13.43;5.65;;;;;;;;;;4915500;29;20026;-74
2021/11/05 08:15:29;;;;;;;21.60;5.65;;;;;;;;;;4916050;29;20733;-74
2021/11/05 08:17:55;;;;;;;11.32;4.80;;;;;;;;;;4915165;29;20061;-74
2021/11/05 08:20:21;;;;;;;14.40;5.03;;;;;;;;;;4917892;29;20056;-74
2021/11/05 08:22:48;;;;;;;18.48;5.30;;;;;;;;;;4912968;29;20054;-74
2021/11/05 08:25:17;;;;;;;21.25;6.72;;;;;;;;;;4914673;29;20043;-74
2021/11/05 08:27:44;;;;;;;16.88;5.90;;;;;;;;;;4913001;29;20051;-74
2021/11/05 08:30:13;;;;;;;16.38;5.32;;;;;;;;;;4915554;29;20441;-74
2021/11/05 08:32:39;;;;;;;15.43;5.28;;;;;;;;;;4918227;29;20083;-74
2021/11/05 08:35:07;;;;;;;23.13;6.20;;;;;;;;;;4920094;29;20020;-73
2021/11/05 08:37:33;;;;;;;15.27;4.88;;;;;;;;;;4916280;29;20375;-74
2021/11/05 08:39:59;;;;;;;14.05;5.20;;;;;;;;;;4915142;29;20024;-74
2021/11/05 08:42:26;;;;;;;17.85;6.35;;;;;;;;;;4914503;29;20034;-73
2021/11/05 08:44:52;;;;;;;19.10;7.00;;;;;;;;;;4910490;29;20067;-74
2021/11/05 08:47:19;;;;;;;24.73;7.40;;;;;;;;;;4914550;29;20028;-74
2021/11/05 08:49:49;;;;;;;22.63;6.28;;;;;;;;;;4916309;29;20047;-73
2021/11/05 08:52:16;;;;;;;15.88;6.10;;;;;;;;;;4912909;29;20356;-73
2021/11/05 08:54:42;;;;;;;22.42;6.85;;;;;;;;;;4913123;29;20035;-73
2021/11/05 08:57:08;;;;;;;17.30;6.20;;;;;;;;;;4910842;29;20571;-74
2021/11/05 08:59:35;;;;;;;28.15;6.85;;;;;;;;;;4912905;29;20043;-74
2021/11/05 09:02:02;;;;;;;18.83;6.60;;;;;;;;;;4913036;29;20027;-73
2021/11/05 09:04:28;;;;;;;20.35;6.43;;;;;;;;;;4903036;29;20529;-74
2021/11/05 09:06:55;;;;;;;16.73;6.35;;;;;;;;;;4908036;29;20126;-74
2021/11/05 09:09:22;;;;;;;16.70;7.05;;;;;;;;;;4916453;29;20023;-74
2021/11/05 09:11:49;;;;;;;18.75;7.22;;;;;;;;;;4918162;29;20420;-74
2021/11/05 09:14:16;;;;;;;21.40;6.47;;;;;;;;;;4914665;29;20075;-74
2021/11/05 09:16:42;;;;;;;20.25;6.53;;;;;;;;;;4918176;29;20054;-74
2021/11/05 09:19:09;;;;;;;20.50;6.97;;;;;;;;;;4920407;29;20099;-74
2021/11/05 09:21:35;;;;;;;19.65;6.75;;;;;;;;;;4919752;29;20043;-75
2021/11/05 09:24:03;;;;;;;16.08;7.05;;;;;;;;;;4919548;29;20050;-74
2021/11/05 09:26:29;;;;;;;18.65;7.22;;;;;;;;;;4921839;29;20412;-75
2021/11/05 09:28:56;;;;;;;13.95;6.75;;;;;;;;;;4917396;29;20024;-74
2021/11/05 09:31:23;;;;;;;13.57;5.88;;;;;;;;;;4915696;29;20035;-73
2021/11/05 09:33:50;;;;;;;20.23;6.82;;;;;;;;;;4917345;29;20023;-74
2021/11/05 09:36:16;;;;;;;18.52;6.95;;;;;;;;;;4920482;29;20030;-74
2021/11/05 09:38:43;;;;;;;17.90;6.57;;;;;;;;;;4920466;29;20051;-74
2021/11/05 09:41:09;;;;;;;23.27;7.80;;;;;;;;;;4918288;29;20055;-72
2021/11/05 09:43:36;;;;;;;16.17;6.68;;;;;;;;;;4920253;29;20523;-75
2021/11/05 09:46:03;;;;;;;22.58;7.28;;;;;;;;;;4912747;29;20055;-74
2021/11/05 09:48:29;;;;;;;19.17;7.53;;;;;;;;;;4916671;29;20028;-74
2021/11/05 09:50:57;;;;;;;16.25;7.45;;;;;;;;;;4914219;29;20039;-73
2021/11/05 09:53:24;;;;;;;11.98;6.25;;;;;;;;;;4913843;29;20680;-74
2021/11/05 09:55:51;;;;;;;14.60;7.07;;;;;;;;;;4913777;29;20066;-74
2021/11/05 09:58:17;;;;;;;18.20;7.40;;;;;;;;;;4913718;29;20112;-73
2021/11/05 10:00:44;;;;;;;17.88;7.43;;;;;;;;;;4912101;29;20475;-74
2021/11/05 10:03:10;;;;;;;17.95;7.03;;;;;;;;;;4912106;29;20031;-74
2021/11/05 10:05:37;;;;;;;16.67;7.15;;;;;;;;;;4915053;29;20179;-74
2021/11/05 10:08:03;;;;;;;13.00;7.47;;;;;;;;;;4912673;29;20042;-74
2021/11/05 10:10:31;;;;;;;13.07;6.45;;;;;;;;;;4916423;29;20690;-74
2021/11/05 10:13:02;;;;;;;21.25;7.35;;;;;;;;;;4914207;29;20095;-74
2021/11/05 10:15:35;;;;;;;21.50;7.60;;;;;;;;;;4916092;29;20043;-74
2021/11/05 10:18:06;;;;;;;15.45;7.78;;;;;;;;;;4916661;29;20494;-74
2021/11/05 10:20:32;;;;;;;17.67;8.10;;;;;;;;;;4914015;29;20040;-74
2021/11/05 10:23:02;;;;;;;14.65;7.20;;;;;;;;;;4911770;29;20043;-74
2021/11/05 10:25:37;;;;;;;18.65;7.80;;;;;;;;;;4917577;29;20031;-74
2021/11/05 10:28:14;;;;;;;20.98;7.63;;;;;;;;;;4918502;29;20028;-74
2021/11/05 10:30:43;;;;;;;21.13;8.25;;;;;;;;;;4916229;29;20055;-74
2021/11/05 10:33:09;;;;;;;16.90;7.00;;;;;;;;;;4921822;29;20055;-74
2021/11/05 10:35:43;;;;;;;25.90;10.45;;;;;;;;;;4918446;29;20071;-74
2021/11/05 10:38:12;;;;;;;17.20;10.80;;;;;;;;;;4916480;29;20023;-74
2021/11/05 10:40:41;;;;;;;20.05;12.27;;;;;;;;;;4919424;29;20492;-74
2021/11/05 10:43:08;;;;;;;31.33;13.20;;;;;;;;;;4916818;29;20196;-74
2021/11/05 10:45:36;;;;;;;24.08;12.02;;;;;;;;;;4914389;29;20488;-74
2021/11/05 10:48:04;;;;;;;19.08;10.45;;;;;;;;;;4916820;29;20020;-74
2021/11/05 10:50:31;;;;;;;16.40;10.20;;;;;;;;;;4920324;29;20027;-74
2021/11/05 10:53:11;;;;;;;19.77;9.50;;;;;;;;;;4918201;29;20197;-74
2021/11/05 10:55:48;;;;;;;26.52;10.60;;;;;;;;;;4919265;29;20514;-74
2021/11/05 10:58:18;;;;;;;18.95;8.77;;;;;;;;;;4915729;29;20558;-74
2021/11/05 11:00:45;;;;;;;14.73;8.80;;;;;;;;;;4916518;29;20024;-74
2021/11/05 11:03:21;;;;;;;15.32;8.90;;;;;;;;;;4918172;29;20046;-74
2021/11/05 11:05:48;;;;;;;21.42;9.57;;;;;;;;;;4917321;29;20442;-75
2021/11/05 11:08:25;;;;;;;18.25;10.35;;;;;;;;;;4923355;29;20489;-74
2021/11/05 11:10:52;;;;;;;23.77;11.60;;;;;;;;;;4917788;29;20287;-74
2021/11/05 11:13:29;;;;;;;20.95;10.48;;;;;;;;;;4915066;29;20472;-74
2021/11/05 11:15:55;;;;;;;21.63;9.70;;;;;;;;;;4916555;29;20039;-74
2021/11/05 11:18:22;;;;;;;15.68;7.57;;;;;;;;;;4916280;29;20028;-74
2021/11/05 11:20:48;;;;;;;14.10;7.30;;;;;;;;;;4916991;29;20114;-74
2021/11/05 11:23:14;;;;;;;19.42;8.10;;;;;;;;;;4918134;29;20039;-74
2021/11/05 11:25:42;;;;;;;20.55;8.50;;;;;;;;;;4913560;29;20440;-74
2021/11/05 11:28:09;;;;;;;21.48;9.15;;;;;;;;;;4912490;29;20093;-74
2021/11/05 11:30:35;;;;;;;19.73;8.95;;;;;;;;;;4914164;29;20291;-73
2021/11/05 11:33:02;;;;;;;20.13;9.55;;;;;;;;;;4917033;29;20028;-73
2021/11/05 11:35:28;;;;;;;17.73;7.47;;;;;;;;;;4907661;29;20059;-73
2021/11/05 11:37:55;;;;;;;24.75;8.13;;;;;;;;;;4915934;29;20484;-73
2021/11/05 11:40:22;;;;;;;12.85;6.60;;;;;;;;;;4915573;29;20028;-74
2021/11/05 11:42:49;;;;;;;13.82;6.07;;;;;;;;;;4905951;29;20107;-73
2021/11/05 11:45:16;;;;;;;16.40;6.85;;;;;;;;;;4903063;29;20020;-73
2021/11/05 11:47:47;;;;;;;16.45;7.25;;;;;;;;;;4913276;29;20034;-73
2021/11/05 11:50:26;;;;;;;18.63;7.67;;;;;;;;;;4912333;29;20043;-73
2021/11/05 11:53:00;;;;;;;17.85;8.48;;;;;;;;;;4909859;29;20039;-74
2021/11/05 11:55:27;;;;;;;20.70;7.82;;;;;;;;;;4918191;29;20086;-73
2021/11/05 11:58:09;;;;;;;14.32;5.03;;;;;;;;;;4919180;29;20024;-74
2021/11/05 12:00:35;;;;;;;14.50;6.13;;;;;;;;;;4913495;29;20034;-73
2021/11/05 12:03:04;;;;;;;20.45;5.60;;;;;;;;;;4917935;29;20487;-74
2021/11/05 12:05:30;;;;;;;14.25;5.93;;;;;;;;;;4916094;29;20586;-74
2021/11/05 12:08:34;;;;;;;22.95;6.75;;;;;;;;;;4918127;29;20035;-73
2021/11/05 12:11:09;;;;;;;13.23;5.57;;;;;;;;;;4866354;29;20053;-74
2021/11/05 12:13:36;;;;;;;18.10;6.43;;;;;;;;;;4912303;29;20075;-74
2021/11/05 12:16:27;;;;;;;19.25;6.18;;;;;;;;;;4919894;29;20024;-74
2021/11/05 12:19:00;;;;;;;19.30;6.70;;;;;;;;;;4921473;29;20038;-73
2021/11/05 12:21:28;;;;;;;15.80;6.18;;;;;;;;;;4919746;29;20035;-74
2021/11/05 12:24:16;;;;;;;25.90;7.32;;;;;;;;;;4918128;29;20036;-74
2021/11/05 12:26:44;;;;;;;16.92;6.80;;;;;;;;;;4917871;29;20020;-74
2021/11/05 12:29:11;;;;;;;21.98;6.00;;;;;;;;;;4908306;29;20127;-74
2021/11/05 12:31:44;;;;;;;21.50;6.18;;;;;;;;;;4915684;29;20028;-74
2021/11/05 12:34:22;;;;;;;12.75;5.68;;;;;;;;;;4920126;29;20764;-74
2021/11/05 12:36:54;;;;;;;10.10;5.25;;;;;;;;;;4917234;29;20028;-74
2021/11/05 12:39:36;;;;;;;17.58;7.35;;;;;;;;;;4916995;29;20032;-74
2021/11/05 12:42:05;;;;;;;15.52;5.18;;;;;;;;;;4917387;29;20042;-74
2021/11/05 12:45:00;;;;;;;20.52;6.15;;;;;;;;;;4918996;29;20058;-74
2021/11/05 12:47:48;;;;;;;16.77;5.57;;;;;;;;;;4918168;29;20040;-73
2021/11/05 12:50:28;;;;;;;18.70;5.95;;;;;;;;;;4918438;29;20043;-74
2021/11/05 12:53:03;;;;;;;10.23;5.32;;;;;;;;;;4917327;29;20563;-74
2021/11/05 12:55:31;;;;;;;10.63;4.80;;;;;;;;;;4922185;29;20046;-73
2021/11/05 12:57:59;;;;;;;12.20;4.72;;;;;;;;;;4919516;29;20103;-73
2021/11/05 13:00:33;;;;;;;12.60;5.30;;;;;;;;;;4908839;29;20424;-73
2021/11/05 13:03:00;;;;;;;12.82;6.13;;;;;;;;;;4916421;29;20087;-74
2021/11/05 13:08:32;;;;;;;11.80;5.88;;;;;;;;;;4906354;29;20464;-74
2021/11/05 13:11:03;;;;;;;16.50;6.63;;;;;;;;;;4908442;29;20024;-73
2021/11/05 13:13:29;;;;;;;13.90;6.88;;;;;;;;;;4907943;29;20036;-74
2021/11/05 13:15:55;;;;;;;13.35;6.53;;;;;;;;;;4906499;29;20107;-74
2021/11/05 13:18:23;;;;;;;16.35;6.78;;;;;;;;;;4913312;29;20032;-74
2021/11/05 13:20:49;;;;;;;15.75;7.00;;;;;;;;;;4920785;29;20063;-74
2021/11/05 13:23:17;;;;;;;12.50;6.50;;;;;;;;;;4911291;29;20536;-73
2021/11/05 13:25:45;;;;;;;14.20;6.70;;;;;;;;;;4913409;29;20055;-74
2021/11/05 13:28:15;;;;;;;12.55;7.30;;;;;;;;;;4907411;29;20938;-75
2021/11/05 13:30:45;;;;;;;17.45;7.60;;;;;;;;;;4920417;29;20623;-74
2021/11/05 13:33:12;;;;;;;12.25;6.63;;;;;;;;;;4913464;29;20025;-74
2021/11/05 13:35:57;;;;;;;15.95;8.07;;;;;;;;;;4918543;29;20035;-75
2021/11/05 13:38:27;;;;;;;18.35;7.47;;;;;;;;;;4913088;29;20028;-74
2021/11/05 13:41:28;;;;;;;21.80;7.68;;;;;;;;;;4916948;29;20139;-74
2021/11/05 13:43:56;;;;;;;16.65;7.82;;;;;;;;;;4917594;29;20027;-74
2021/11/05 13:46:29;;;;;;;20.48;8.35;;;;;;;;;;4917811;29;20103;-73
2021/11/05 13:48:56;;;;;;;20.80;8.65;;;;;;;;;;4918503;29;20075;-74
2021/11/05 13:51:24;;;;;;;15.40;8.10;;;;;;;;;;4917225;29;20027;-74
2021/11/05 13:53:52;;;;;;;14.57;8.20;;;;;;;;;;4914408;29;20055;-74
2021/11/05 13:56:19;;;;;;;19.23;8.07;;;;;;;;;;4916643;29;20030;-73
2021/11/05 13:58:46;;;;;;;17.73;8.38;;;;;;;;;;4911774;29;20492;-74
2021/11/05 14:01:19;;;;;;;18.02;8.85;;;;;;;;;;4912746;29;20060;-72
2021/11/05 14:03:47;;;;;;;14.00;7.63;;;;;;;;;;4918536;29;20028;-71
2021/11/05 14:06:14;;;;;;;17.58;8.35;;;;;;;;;;4914903;29;20107;-71
2021/11/05 14:08:54;;;;;;;18.23;7.97;;;;;;;;;;4915228;29;20028;-72
2021/11/05 14:11:37;;;;;;;17.77;7.60;;;;;;;;;;4904432;29;20040;-72
2021/11/05 14:14:23;;;;;;;16.52;8.45;;;;;;;;;;4917331;29;20390;-71
2021/11/05 14:16:50;;;;;;;20.42;9.00;;;;;;;;;;4916553;29;20119;-72
2021/11/05 14:19:18;;;;;;;23.50;8.05;;;;;;;;;;4914334;29;20036;-71
2021/11/05 14:21:45;;;;;;;15.45;8.63;;;;;;;;;;4909462;29;20071;-72
2021/11/05 14:24:20;;;;;;;25.70;10.15;;;;;;;;;;4913958;29;20087;-73
2021/11/05 14:26:48;;;;;;;14.55;8.48;;;;;;;;;;4914783;29;20725;-74
2021/11/05 14:29:19;;;;;;;18.15;8.05;;;;;;;;;;4915453;29;20044;-74
2021/11/05 14:31:45;;;;;;;;;;;;;;;;;;4915621;29;20059;-74
2021/11/05 14:34:11;;;;;;;18.83;7.72;;;;;;;;;;4916017;29;20013;-73
2021/11/05 14:36:38;;;;;;;12.30;7.03;;;;;;;;;;4914459;29;20032;-74
2021/11/05 14:39:04;;;;;;;13.20;6.97;;;;;;;;;;4915566;29;20027;-73
2021/11/05 14:41:31;;;;;;;14.63;6.60;;;;;;;;;;4913303;29;20133;-74